Time;durP1;ratioP1;P1;durP2;ratioP2;P2;SDS_P1;SDS_P2;PMS_P1;PMS_P2;Temp;Humidity;BMP_temperature;BMP_pressure;BME280_temperature;BME280_humidity;BME280_pressure;Samples;Min_cycle;Max_cycle;Signal;HPM_P1;HPM_P2
2021/07/11 00:00:25;;;;;;;32.15;13.25;;;;;;;23.46;73.82;100725.07;1710303;82;21016;-59
2021/07/11 00:02:51;;;;;;;39.53;13.72;;;;;;;23.43;73.79;100726.20;1691463;82;21828;-59
2021/07/11 00:05:18;;;;;;;37.75;13.93;;;;;;;23.41;73.90;100728.21;1736065;81;20922;-59
2021/07/11 00:07:45;;;;;;;29.50;13.55;;;;;;;23.41;74.05;100728.21;1728024;81;20993;-60
2021/07/11 00:10:13;;;;;;;34.50;13.18;;;;;;;23.39;74.21;100732.08;1773331;79;21768;-59
2021/07/11 00:12:40;;;;;;;28.42;14.35;;;;;;;23.36;74.42;100725.03;1779878;79;21035;-59
2021/07/11 00:15:09;;;;;;;26.82;13.90;;;;;;;23.35;74.56;100721.94;1773120;79;21652;-59
2021/07/11 00:17:36;;;;;;;34.63;13.72;;;;;;;23.32;74.58;100726.28;1768920;79;20918;-59
2021/07/11 00:20:05;;;;;;;35.70;14.83;;;;;;;23.29;74.69;100725.20;1775026;79;21066;-59
2021/07/11 00:22:32;;;;;;;35.52;13.88;;;;;;;23.26;75.06;100720.89;1731306;81;21046;-59
2021/07/11 00:24:58;;;;;;;29.40;13.93;;;;;;;23.21;75.09;100714.94;1775088;79;21470;-60
2021/07/11 00:27:25;;;;;;;32.17;14.45;;;;;;;23.17;75.35;100712.97;1775321;79;22364;-60
2021/07/11 00:29:52;;;;;;;39.45;19.92;;;;;;;23.15;75.53;100711.36;1774855;79;20981;-60
2021/07/11 00:32:19;;;;;;;43.63;19.67;;;;;;;23.12;75.79;100715.26;1767287;80;21442;-59
2021/07/11 00:34:45;;;;;;;32.60;17.60;;;;;;;23.11;75.87;100716.27;1779463;79;21358;-59
2021/07/11 00:37:12;;;;;;;29.25;17.00;;;;;;;23.07;75.84;100713.41;1772646;79;21465;-59
2021/07/11 00:39:39;;;;;;;39.48;15.90;;;;;;;23.04;75.96;100722.77;1774209;79;21047;-59
2021/07/11 00:42:08;;;;;;;32.28;14.23;;;;;;;23.07;76.16;100738.02;1751122;80;21471;-59
2021/07/11 00:44:35;;;;;;;39.38;14.68;;;;;;;23.09;76.61;100726.95;1773674;79;21453;-59
2021/07/11 00:47:01;;;;;;;38.33;13.90;;;;;;;23.06;77.01;100728.60;1772763;79;21371;-60
2021/07/11 00:49:31;;;;;;;33.90;14.25;;;;;;;23.00;77.54;100740.45;1770954;79;20891;-59
2021/07/11 00:51:58;;;;;;;36.28;14.73;;;;;;;22.98;78.13;100715.61;1773664;79;21590;-59
2021/07/11 00:54:27;;;;;;;33.70;14.13;;;;;;;22.92;78.17;100727.09;1768975;79;21091;-59
2021/07/11 00:56:55;;;;;;;21.25;12.53;;;;;;;22.86;78.01;100730.70;1767115;79;20941;-63
2021/07/11 00:59:23;;;;;;;22.50;11.68;;;;;;;22.87;77.25;100726.13;1776890;79;20893;-60
2021/07/11 01:02:27;;;;;;;21.30;11.50;;;;;;;22.94;76.32;100722.36;1737117;80;21104;-59
2021/07/11 01:05:06;;;;;;;20.75;11.48;;;;;;;23.07;76.04;100718.87;1731039;80;21115;-62
2021/07/11 01:07:59;;;;;;;30.15;12.00;;;;;;;23.20;75.79;100713.70;1717646;82;21078;-62
2021/07/11 01:10:33;;;;;;;26.33;12.63;;;;;;;23.27;75.28;100703.97;1693990;82;20961;-62
2021/07/11 01:13:10;;;;;;;24.80;12.37;;;;;;;23.34;74.12;100707.02;1773696;79;20954;-62
2021/07/11 01:15:38;;;;;;;21.97;10.85;;;;;;;23.37;73.32;100707.62;1752377;80;21455;-63
2021/07/11 01:18:07;;;;;;;25.50;12.78;;;;;;;23.42;71.66;100701.70;1736173;81;21370;-62
2021/07/11 01:20:45;;;;;;;24.45;13.30;;;;;;;23.49;71.13;100693.81;1691230;83;22289;-60
2021/07/11 01:23:26;;;;;;;30.65;13.98;;;;;;;23.53;71.04;100686.56;1739055;81;20989;-59
2021/07/11 01:25:53;;;;;;;20.35;11.60;;;;;;;23.56;70.82;100692.27;1732523;81;21478;-59
2021/07/11 01:28:22;;;;;;;31.73;12.30;;;;;;;23.54;70.50;100699.72;1714017;81;21482;-59
2021/07/11 01:30:50;;;;;;;25.62;12.65;;;;;;;23.54;70.46;100695.13;1734039;81;21509;-60
2021/07/11 01:33:18;;;;;;;26.50;12.28;;;;;;;23.56;70.38;100698.59;1708016;81;21619;-59
2021/07/11 01:35:45;;;;;;;22.80;12.35;;;;;;;23.56;70.32;100689.53;1735536;80;21466;-63
2021/07/11 01:38:12;;;;;;;23.85;12.65;;;;;;;23.55;70.60;100685.06;1734866;80;21443;-63
2021/07/11 01:40:39;;;;;;;28.62;12.30;;;;;;;23.48;71.07;100689.34;1737128;81;21298;-63
2021/07/11 01:43:07;;;;;;;24.25;12.13;;;;;;;23.41;71.75;100700.86;1738357;81;21711;-64
2021/07/11 01:45:36;;;;;;;24.25;12.28;;;;;;;23.36;72.24;100705.00;1779282;78;20965;-66
2021/07/11 01:48:04;;;;;;;28.27;13.22;;;;;;;23.29;72.69;100696.48;1738763;81;21005;-65
2021/07/11 01:50:30;;;;;;;35.90;12.95;;;;;;;23.24;73.34;100690.53;1779842;79;20987;-63
2021/07/11 01:52:57;;;;;;;31.77;13.00;;;;;;;23.16;73.66;100692.10;1731325;80;20946;-63
2021/07/11 01:55:26;;;;;;;43.87;14.93;;;;;;;23.11;74.21;100700.34;1751285;80;21086;-63
2021/07/11 01:57:52;;;;;;;36.17;13.62;;;;;;;23.07;75.02;100700.26;1770592;79;21518;-63
2021/07/11 02:00:20;;;;;;;24.02;13.72;;;;;;;23.01;75.79;100704.40;1779224;79;21073;-63
2021/07/11 02:02:46;;;;;;;30.32;13.70;;;;;;;22.96;76.42;100709.41;1777963;78;20971;-63
2021/07/11 02:05:18;;;;;;;34.83;17.27;;;;;;;22.89;77.44;100714.06;1775193;78;21075;-59
2021/07/11 02:07:46;;;;;;;31.60;18.27;;;;;;;22.81;78.37;100716.59;1782997;80;21610;-59
2021/07/11 02:10:15;;;;;;;34.03;16.90;;;;;;;22.73;79.16;100710.94;1782347;79;20950;-63
2021/07/11 02:12:56;;;;;;;30.82;18.37;;;;;;;22.64;79.78;100716.70;1784824;79;20905;-64
2021/07/11 02:15:29;;;;;;;36.28;15.72;;;;;;;22.56;80.54;100713.27;1750158;80;21512;-63
2021/07/11 02:17:56;;;;;;;35.90;15.60;;;;;;;22.50;81.02;100717.91;1706054;82;21443;-64
2021/07/11 02:20:26;;;;;;;29.07;15.15;;;;;;;22.46;81.38;100715.05;1730394;81;21522;-64
2021/07/11 02:22:56;;;;;;;28.85;16.05;;;;;;;22.40;81.72;100705.99;1778019;78;20989;-63
2021/07/11 02:25:24;;;;;;;33.95;17.35;;;;;;;22.34;81.97;100707.41;1717734;80;20934;-60
2021/07/11 02:27:52;;;;;;;33.65;20.20;;;;;;;22.28;82.36;100711.53;1783480;79;21557;-60
2021/07/11 02:30:25;;;;;;;33.08;18.23;;;;;;;22.22;82.89;100713.42;1780798;79;21058;-59
2021/07/11 02:32:51;;;;;;;27.10;15.70;;;;;;;22.15;83.50;100711.70;1773370;79;21661;-64
2021/07/11 02:35:27;;;;;;;32.83;17.60;;;;;;;22.10;84.04;100710.36;1777033;80;20921;-64
2021/07/11 02:37:55;;;;;;;41.53;19.17;;;;;;;22.07;84.67;100707.89;1734876;80;20885;-60
2021/07/11 02:40:22;;;;;;;30.52;17.55;;;;;;;22.01;85.49;100700.60;1776156;79;21001;-60
2021/07/11 02:42:51;;;;;;;42.75;19.60;;;;;;;21.95;86.12;100696.15;1771895;79;21755;-63
2021/07/11 02:45:19;;;;;;;32.65;19.62;;;;;;;21.92;86.47;100704.09;1750328;79;21086;-63
2021/07/11 02:47:48;;;;;;;30.97;18.12;;;;;;;21.89;86.82;100703.87;1750614;79;20984;-63
2021/07/11 02:50:17;;;;;;;35.17;17.20;;;;;;;21.88;87.03;100701.25;1709818;82;21067;-63
2021/07/11 02:52:47;;;;;;;44.48;26.05;;;;;;;21.89;87.24;100698.89;1733792;81;20998;-63
2021/07/11 02:55:21;;;;;;;31.95;24.50;;;;;;;21.89;86.94;100701.63;1728538;81;21590;-62
2021/07/11 02:57:56;;;;;;;50.95;28.87;;;;;;;21.93;86.65;100705.81;1731285;81;21519;-63
2021/07/11 03:00:23;;;;;;;48.33;24.18;;;;;;;21.99;86.25;100705.29;1699522;83;21030;-63
2021/07/11 03:02:51;;;;;;;50.80;30.95;;;;;;;22.04;86.01;100710.38;1770505;79;21130;-63
2021/07/11 03:05:21;;;;;;;36.05;24.72;;;;;;;22.08;85.71;100720.55;1776078;79;20992;-63
2021/07/11 03:07:49;;;;;;;40.38;25.15;;;;;;;22.12;85.44;100719.28;1771714;80;21378;-63
2021/07/11 03:10:18;;;;;;;36.93;22.82;;;;;;;22.16;85.31;100713.44;1771858;79;20962;-63
2021/07/11 03:12:48;;;;;;;33.50;23.35;;;;;;;22.20;85.16;100714.03;1752813;80;21012;-62
2021/07/11 03:15:20;;;;;;;46.23;32.40;;;;;;;22.24;84.34;100711.91;1738924;81;20918;-59
2021/07/11 03:17:48;;;;;;;48.58;28.00;;;;;;;22.30;83.94;100713.62;1715289;81;21040;-63
2021/07/11 03:20:19;;;;;;;43.80;26.80;;;;;;;22.38;83.95;100713.45;1697775;82;21535;-63
2021/07/11 03:22:46;;;;;;;47.00;22.90;;;;;;;22.47;83.82;100720.91;1719451;82;21601;-62
2021/07/11 03:25:13;;;;;;;42.83;27.15;;;;;;;22.53;83.61;100717.64;1730446;80;20894;-62
2021/07/11 03:27:40;;;;;;;42.05;21.85;;;;;;;22.58;83.50;100716.73;1755684;80;21103;-63
2021/07/11 03:30:11;;;;;;;34.73;23.18;;;;;;;22.61;83.45;100716.46;1771485;79;22421;-62
2021/07/11 03:33:00;;;;;;;37.08;23.35;;;;;;;22.65;83.39;100720.28;1775047;79;21588;-61
2021/07/11 03:35:54;;;;;;;47.70;24.43;;;;;;;22.65;83.33;100723.02;1774518;79;21512;-62
2021/07/11 03:38:34;;;;;;;35.28;22.60;;;;;;;22.63;83.59;100715.45;1784715;79;21044;-59
2021/07/11 03:41:00;;;;;;;40.43;23.38;;;;;;;22.63;83.86;100715.45;1776943;79;20985;-59
2021/07/11 03:43:28;;;;;;;42.67;21.52;;;;;;;22.59;83.85;100719.83;1733768;80;21124;-58
2021/07/11 03:45:57;;;;;;;44.00;22.55;;;;;;;22.60;84.03;100714.73;1723771;81;21068;-59
2021/07/11 03:48:29;;;;;;;34.50;21.97;;;;;;;22.66;84.12;100719.28;1781085;78;21648;-62
2021/07/11 03:51:00;;;;;;;41.58;19.85;;;;;;;22.70;84.15;100717.53;1773836;78;20932;-63
2021/07/11 03:53:30;;;;;;;42.78;22.27;;;;;;;22.77;83.73;100721.97;1786194;78;20949;-59
2021/07/11 03:55:58;;;;;;;44.33;20.97;;;;;;;22.83;83.80;100732.34;1737251;80;21075;-59
2021/07/11 03:58:25;;;;;;;43.60;21.60;;;;;;;22.92;83.09;100729.83;1776591;78;21038;-59
2021/07/11 04:00:52;;;;;;;45.55;20.80;;;;;;;23.00;82.68;100724.53;1776549;79;21865;-63
2021/07/11 04:03:19;;;;;;;43.55;20.70;;;;;;;23.11;82.29;100728.56;1777947;78;20925;-63
2021/07/11 04:05:46;;;;;;;42.88;23.75;;;;;;;23.24;81.19;100728.82;1775911;79;20944;-62
2021/07/11 04:08:15;;;;;;;45.05;24.02;;;;;;;23.34;81.11;100720.20;1785428;79;20896;-58
2021/07/11 04:10:42;;;;;;;34.40;19.57;;;;;;;23.49;80.25;100726.64;1783115;78;21072;-59
2021/07/11 04:13:08;;;;;;;40.98;19.87;;;;;;;23.63;79.55;100722.65;1782686;78;21070;-59
2021/07/11 04:15:35;;;;;;;38.28;18.57;;;;;;;23.75;79.05;100729.75;1783917;78;20984;-59
2021/07/11 04:18:15;;;;;;;34.50;18.42;;;;;;;23.86;78.57;100723.29;1780379;78;20953;-62
2021/07/11 04:20:37;;;;;;;31.33;19.45;;;;;;;23.96;77.82;100725.52;1736752;80;20944;-63
2021/07/11 04:23:04;;;;;;;36.77;18.40;;;;;;;24.06;77.19;100720.61;1785046;78;20881;-62
2021/07/11 04:25:32;;;;;;;40.63;18.70;;;;;;;24.14;76.66;100728.47;1783046;78;21021;-63
2021/07/11 04:28:00;;;;;;;34.27;19.87;;;;;;;24.24;76.21;100720.75;1782685;80;21043;-62
2021/07/11 04:30:28;;;;;;;40.48;24.07;;;;;;;24.34;75.94;100716.64;1788305;78;20980;-62
2021/07/11 04:32:55;;;;;;;48.98;26.80;;;;;;;24.44;75.33;100718.37;1783705;78;21476;-62
2021/07/11 04:35:22;;;;;;;48.33;26.65;;;;;;;24.57;74.84;100719.44;1784071;78;21505;-59
2021/07/11 04:37:48;;;;;;;43.68;25.02;;;;;;;24.71;74.29;100715.89;1776143;79;21083;-59
2021/07/11 04:40:15;;;;;;;42.62;24.92;;;;;;;24.84;72.92;100721.93;1737206;80;21147;-58
2021/07/11 04:42:43;;;;;;;48.00;23.80;;;;;;;24.94;72.55;100718.31;1740222;80;20992;-59
2021/07/11 04:45:10;;;;;;;37.13;19.92;;;;;;;25.03;71.22;100719.66;1736560;80;21814;-59
2021/07/11 04:47:37;;;;;;;32.08;19.37;;;;;;;25.10;70.24;100713.56;1736797;80;21479;-58
2021/07/11 04:50:05;;;;;;;33.92;17.87;;;;;;;25.17;69.95;100718.31;1734787;80;21752;-64
2021/07/11 04:52:32;;;;;;;34.67;14.47;;;;;;;25.30;68.99;100718.45;1742365;80;20858;-62
2021/07/11 04:54:58;;;;;;;28.42;13.88;;;;;;;25.36;67.09;100721.11;1731531;80;21131;-61
2021/07/11 04:57:25;;;;;;;25.75;13.18;;;;;;;25.40;66.96;100717.91;1735796;80;21122;-62
2021/07/11 04:59:54;;;;;;;29.45;13.10;;;;;;;25.46;66.31;100722.78;1698546;82;20969;-60
2021/07/11 05:02:20;;;;;;;30.45;11.88;;;;;;;25.54;65.89;100715.73;1734554;80;21499;-58
2021/07/11 05:04:46;;;;;;;25.10;13.35;;;;;;;25.60;65.57;100708.24;1736390;80;20897;-57
2021/07/11 05:07:14;;;;;;;28.83;12.00;;;;;;;25.71;65.42;100716.25;1738828;80;20945;-58
2021/07/11 05:09:41;;;;;;;26.80;11.70;;;;;;;25.82;65.45;100720.66;1741804;81;21096;-59
2021/07/11 05:12:09;;;;;;;22.77;11.83;;;;;;;25.95;64.51;100720.28;1767146;79;21055;-58
2021/07/11 05:14:35;;;;;;;24.80;12.58;;;;;;;26.10;64.47;100725.24;1779134;79;21089;-59
2021/07/11 05:17:03;;;;;;;24.45;11.95;;;;;;;26.24;64.06;100726.61;1775769;79;21375;-59
2021/07/11 05:19:31;;;;;;;27.00;12.82;;;;;;;26.38;63.80;100721.05;1778399;79;20960;-58
2021/07/11 05:22:04;;;;;;;31.62;11.85;;;;;;;26.54;63.47;100728.08;1776295;79;21411;-58
2021/07/11 05:24:31;;;;;;;30.52;12.28;;;;;;;26.69;62.38;100725.61;1737351;80;21017;-59
2021/07/11 05:26:58;;;;;;;35.90;11.95;;;;;;;26.78;61.33;100722.41;1739994;80;21076;-58
2021/07/11 05:29:25;;;;;;;25.25;10.78;;;;;;;26.85;61.26;100734.51;1730492;80;21550;-58
2021/07/11 05:31:52;;;;;;;28.83;10.85;;;;;;;26.94;60.86;100723.59;1736767;80;21122;-58
2021/07/11 05:34:18;;;;;;;28.23;10.25;;;;;;;27.09;60.33;100726.09;1733883;80;21514;-58
2021/07/11 05:36:45;;;;;;;22.75;8.68;;;;;;;27.26;58.37;100737.16;1714210;82;20937;-59
2021/07/11 05:39:14;;;;;;;22.00;9.50;;;;;;;27.40;57.23;100732.43;1704459;82;21109;-58
2021/07/11 05:41:39;;;;;;;14.35;9.30;;;;;;;27.54;57.16;100739.23;1704705;82;21045;-59
2021/07/11 05:44:06;;;;;;;15.20;8.40;;;;;;;27.68;56.34;100740.48;1752646;80;21441;-59
2021/07/11 05:46:33;;;;;;;21.42;8.73;;;;;;;27.85;55.76;100745.55;1746403;80;20948;-59
2021/07/11 05:48:59;;;;;;;13.58;7.28;;;;;;;28.10;55.00;100744.72;1747473;80;21078;-59
2021/07/11 05:51:26;;;;;;;17.37;7.70;;;;;;;28.29;52.22;100744.44;1709337;82;21848;-59
2021/07/11 05:53:55;;;;;;;24.52;8.23;;;;;;;28.44;49.51;100742.39;1744640;80;21391;-60
2021/07/11 05:56:21;;;;;;;22.17;7.35;;;;;;;28.48;48.91;100752.54;1747840;80;21009;-59
2021/07/11 05:58:48;;;;;;;16.73;8.40;;;;;;;28.45;48.92;100755.98;1748059;80;20972;-59
2021/07/11 06:01:14;;;;;;;17.00;7.53;;;;;;;28.42;48.79;100745.84;1744077;80;21017;-59
2021/07/11 06:03:41;;;;;;;13.80;7.60;;;;;;;28.39;48.98;100742.90;1753621;80;21512;-59
2021/07/11 06:06:08;;;;;;;15.13;7.28;;;;;;;28.33;49.03;100746.84;1745504;80;21024;-59
2021/07/11 06:08:35;;;;;;;14.18;6.42;;;;;;;28.33;49.64;100735.32;1748370;80;21450;-59
2021/07/11 06:11:01;;;;;;;16.32;6.70;;;;;;;28.35;49.63;100740.14;1750259;80;20987;-59
2021/07/11 06:13:28;;;;;;;17.82;6.78;;;;;;;28.31;50.07;100752.02;1747060;80;21513;-59
2021/07/11 06:15:55;;;;;;;13.08;7.08;;;;;;;28.28;50.19;100770.28;1750981;80;21561;-58
2021/07/11 06:18:23;;;;;;;13.83;6.87;;;;;;;28.34;49.71;100733.41;1740892;81;21004;-58
2021/07/11 06:20:49;;;;;;;14.45;6.90;;;;;;;28.45;48.86;100732.55;1745688;80;21085;-59
2021/07/11 06:23:16;;;;;;;13.95;7.12;;;;;;;28.51;47.52;100756.33;1751211;80;21128;-59
2021/07/11 06:25:43;;;;;;;12.85;6.78;;;;;;;28.47;47.27;100747.55;1742223;80;21036;-59
2021/07/11 06:28:10;;;;;;;12.33;6.50;;;;;;;28.45;47.25;100739.98;1743083;80;21101;-59
2021/07/11 06:30:36;;;;;;;14.68;6.60;;;;;;;28.44;47.36;100760.31;1746182;80;21536;-60
2021/07/11 06:33:04;;;;;;;11.60;6.37;;;;;;;28.42;47.53;100736.19;1743349;80;21379;-60
2021/07/11 06:35:32;;;;;;;14.40;6.28;;;;;;;28.36;47.84;100750.64;1750697;79;21463;-60
2021/07/11 06:37:59;;;;;;;14.65;6.37;;;;;;;28.28;47.85;100746.84;1779371;79;21084;-60
2021/07/11 06:40:25;;;;;;;16.25;6.70;;;;;;;28.29;48.66;100753.20;1737379;80;21123;-61
2021/07/11 06:42:52;;;;;;;10.00;5.83;;;;;;;28.40;49.29;100738.23;1736926;81;20942;-61
2021/07/11 06:45:19;;;;;;;10.82;5.72;;;;;;;28.54;49.29;100744.44;1738328;80;20972;-61
2021/07/11 06:47:45;;;;;;;14.03;6.08;;;;;;;28.77;49.39;100735.47;1735243;80;21198;-61
2021/07/11 06:50:14;;;;;;;12.53;5.87;;;;;;;28.97;49.09;100723.59;1772974;79;20925;-62
2021/07/11 06:52:40;;;;;;;13.58;5.90;;;;;;;29.12;48.16;100743.03;1774941;79;21981;-62
2021/07/11 06:55:08;;;;;;;8.28;5.50;;;;;;;29.23;46.77;100747.81;1733346;80;21015;-62
2021/07/11 06:57:35;;;;;;;8.20;5.60;;;;;;;29.35;45.35;100745.03;1778866;79;21048;-62
2021/07/11 07:00:04;;;;;;;9.73;5.67;;;;;;;29.52;45.41;100717.39;1729011;80;21028;-62
2021/07/11 07:02:30;;;;;;;11.20;6.25;;;;;;;29.73;45.33;100721.77;1700119;82;21491;-62
2021/07/11 07:04:57;;;;;;;7.70;6.00;;;;;;;29.97;44.27;100719.02;1717714;81;21503;-61
2021/07/11 07:07:23;;;;;;;7.58;6.00;;;;;;;30.12;42.84;100726.03;1705269;82;21506;-62
2021/07/11 07:09:50;;;;;;;8.35;5.92;;;;;;;30.20;41.80;100732.91;1718611;81;20925;-62
2021/07/11 07:12:17;;;;;;;8.23;5.80;;;;;;;30.29;43.10;100730.40;1729320;80;21130;-61
2021/07/11 07:14:43;;;;;;;11.12;6.30;;;;;;;30.48;43.45;100739.75;1704995;83;21117;-62
2021/07/11 07:17:10;;;;;;;14.90;6.72;;;;;;;30.71;41.26;100734.23;1700459;83;21655;-68
2021/07/11 07:19:36;;;;;;;8.58;5.95;;;;;;;30.99;41.12;100730.83;1729717;80;21070;-62
2021/07/11 07:22:03;;;;;;;16.73;6.92;;;;;;;31.22;40.02;100728.53;1726610;80;21159;-62
2021/07/11 07:24:29;;;;;;;10.03;5.85;;;;;;;31.35;40.17;100738.42;1734144;80;21462;-63
2021/07/11 07:26:56;;;;;;;7.85;6.15;;;;;;;31.46;40.71;100744.52;1735743;80;21249;-62
2021/07/11 07:29:22;;;;;;;14.35;5.83;;;;;;;31.63;40.21;100741.87;1700458;82;21442;-69
2021/07/11 07:31:49;;;;;;;9.85;5.78;;;;;;;31.80;40.25;100736.14;1736572;80;20947;-68
2021/07/11 07:34:15;;;;;;;15.35;5.97;;;;;;;31.79;41.87;100731.66;1706187;82;21092;-68
2021/07/11 07:36:42;;;;;;;8.80;6.28;;;;;;;31.72;42.79;100739.84;1719480;82;21059;-69
2021/07/11 07:39:08;;;;;;;13.28;6.60;;;;;;;31.58;42.32;100738.83;1768307;79;21008;-62
2021/07/11 07:41:38;;;;;;;11.00;6.00;;;;;;;31.38;41.22;100744.95;1763458;79;22436;-62
2021/07/11 07:44:05;;;;;;;8.03;6.08;;;;;;;31.15;40.94;100751.42;1760364;79;20897;-63
2021/07/11 07:46:32;;;;;;;10.00;5.62;;;;;;;30.98;40.91;100747.10;1767225;79;21076;-63
2021/07/11 07:48:58;;;;;;;9.70;6.05;;;;;;;30.84;41.66;100752.45;1764709;79;20994;-62
2021/07/11 07:51:24;;;;;;;10.13;6.00;;;;;;;30.73;42.06;100750.99;1766648;79;20918;-62
2021/07/11 07:53:51;;;;;;;9.00;6.28;;;;;;;30.57;42.68;100749.17;1768457;79;21530;-62
2021/07/11 07:56:17;;;;;;;9.40;5.62;;;;;;;30.48;43.27;100752.20;1769265;79;21037;-63
2021/07/11 07:58:44;;;;;;;10.03;6.12;;;;;;;30.43;42.94;100754.16;1768065;79;20991;-62
2021/07/11 08:01:10;;;;;;;11.10;5.75;;;;;;;30.42;42.79;100755.20;1767819;79;20933;-64
2021/07/11 08:03:38;;;;;;;9.75;5.97;;;;;;;30.42;41.99;100752.44;1720557;82;21478;-61
2021/07/11 08:06:05;;;;;;;10.08;5.92;;;;;;;30.42;41.90;100756.59;1757325;79;21139;-62
2021/07/11 08:08:32;;;;;;;14.07;5.80;;;;;;;30.47;42.51;100756.88;1767977;79;21009;-63
2021/07/11 08:11:00;;;;;;;9.25;6.28;;;;;;;30.59;41.79;100758.14;1766966;79;20927;-62
2021/07/11 08:13:27;;;;;;;9.60;5.97;;;;;;;30.74;40.67;100772.59;1769062;79;21379;-61
2021/07/11 08:15:53;;;;;;;9.23;6.15;;;;;;;30.86;39.67;100771.10;1764618;79;21844;-61
2021/07/11 08:18:21;;;;;;;9.35;5.45;;;;;;;30.87;39.14;100767.28;1721159;81;21030;-61
2021/07/11 08:20:48;;;;;;;5.25;4.60;;;;;;;30.89;38.96;100766.23;1717283;81;21042;-61
2021/07/11 08:23:14;;;;;;;4.97;4.50;;;;;;;30.90;38.08;100776.26;1766145;79;21502;-62
2021/07/11 08:25:41;;;;;;;5.28;4.78;;;;;;;30.85;37.51;100770.77;1718399;82;21582;-62
2021/07/11 08:28:07;;;;;;;10.60;5.25;;;;;;;30.77;37.41;100769.44;1701445;82;21643;-62
2021/07/11 08:30:33;;;;;;;5.87;4.62;;;;;;;30.71;37.83;100770.20;1720730;81;20915;-62
2021/07/11 08:33:00;;;;;;;6.37;4.95;;;;;;;30.73;37.88;100766.72;1721903;82;21026;-62
2021/07/11 08:35:27;;;;;;;6.33;5.10;;;;;;;30.72;37.29;100768.61;1764526;79;20891;-62
2021/07/11 08:37:54;;;;;;;6.80;5.50;;;;;;;30.69;37.11;100770.91;1723547;81;21059;-62
2021/07/11 08:40:20;;;;;;;6.30;5.15;;;;;;;30.68;37.98;100774.73;1738183;81;20999;-62
2021/07/11 08:42:52;;;;;;;7.55;6.05;;;;;;;30.72;37.56;100765.84;1725729;81;20996;-62
2021/07/11 08:45:18;;;;;;;6.50;5.05;;;;;;;30.78;38.24;100762.86;1729094;81;20914;-63
2021/07/11 08:47:45;;;;;;;6.78;5.28;;;;;;;30.86;37.84;100758.65;1730455;81;21425;-61
2021/07/11 08:50:14;;;;;;;13.32;6.03;;;;;;;31.00;38.19;100769.41;1728865;81;20949;-62
2021/07/11 08:52:41;;;;;;;9.50;5.53;;;;;;;31.21;38.35;100757.27;1698890;83;21749;-61
2021/07/11 08:55:20;;;;;;;7.50;5.20;;;;;;;31.42;37.97;100761.52;1731302;81;21536;-61
2021/07/11 08:57:53;;;;;;;10.32;5.10;;;;;;;31.58;36.66;100765.15;1733687;81;21456;-61
2021/07/11 09:00:33;;;;;;;9.30;4.80;;;;;;;31.69;37.08;100765.18;1729218;81;21637;-69
2021/07/11 09:03:00;;;;;;;7.30;5.22;;;;;;;31.85;36.47;100763.61;1729810;81;21009;-68
2021/07/11 09:05:34;;;;;;;12.50;4.83;;;;;;;32.01;37.19;100767.19;1734936;81;21047;-69
2021/07/11 09:08:15;;;;;;;6.45;4.45;;;;;;;32.08;37.47;100769.53;1730553;81;21445;-69
2021/07/11 09:10:57;;;;;;;9.58;4.97;;;;;;;32.15;36.80;100761.25;1732323;81;20977;-70
2021/07/11 09:13:28;;;;;;;8.55;5.40;;;;;;;32.19;36.22;100758.45;1733953;81;21064;-61
2021/07/11 09:15:59;;;;;;;7.08;4.85;;;;;;;32.21;35.89;100752.17;1734393;81;21421;-62
2021/07/11 09:18:31;;;;;;;11.40;5.40;;;;;;;32.12;35.99;100758.37;1728138;81;22207;-62
2021/07/11 09:21:09;;;;;;;11.25;5.30;;;;;;;32.01;36.90;100761.12;1732094;81;21778;-62
2021/07/11 09:23:36;;;;;;;16.07;5.40;;;;;;;31.86;37.06;100751.98;1737121;80;21520;-62
2021/07/11 09:26:12;;;;;;;25.82;5.70;;;;;;;31.66;37.79;100767.80;1734455;80;21004;-62
2021/07/11 09:31:18;;;;;;;10.25;5.55;;;;;;;31.38;38.59;100756.55;1731424;81;21476;-62
2021/07/11 09:33:48;;;;;;;11.83;5.30;;;;;;;31.30;38.74;100757.53;1734861;81;21490;-63
2021/07/11 09:36:20;;;;;;;8.78;5.05;;;;;;;31.33;38.92;100758.53;1734311;81;20934;-62
2021/07/11 09:38:51;;;;;;;9.38;4.85;;;;;;;31.36;38.50;100760.91;1728507;81;21072;-62
2021/07/11 09:41:33;;;;;;;10.58;5.20;;;;;;;31.40;38.41;100765.01;1735716;81;21536;-62
2021/07/11 09:44:01;;;;;;;10.88;5.55;;;;;;;31.46;38.53;100783.29;1737591;81;20929;-62
2021/07/11 09:46:35;;;;;;;6.75;5.30;;;;;;;31.52;43.39;100777.84;1729910;81;20987;-62
2021/07/11 09:49:03;;;;;;;8.70;5.67;;;;;;;31.52;46.01;100772.31;1725878;81;21492;-62
2021/07/11 09:51:30;;;;;;;7.22;5.55;;;;;;;31.53;46.43;100774.57;1734116;81;20955;-63
2021/07/11 09:54:12;;;;;;;7.00;5.37;;;;;;;31.61;45.72;100776.34;1732655;81;20932;-62
2021/07/11 09:56:43;;;;;;;8.18;5.53;;;;;;;31.70;44.72;100782.98;1728074;81;21055;-62
2021/07/11 09:59:12;;;;;;;6.78;5.40;;;;;;;31.76;45.18;100789.67;1731269;81;21077;-62
2021/07/11 10:01:41;;;;;;;11.95;5.55;;;;;;;31.81;45.06;100783.59;1727810;80;21022;-62
2021/07/11 10:04:07;;;;;;;16.15;6.53;;;;;;;31.89;46.68;100779.30;1732675;81;20972;-62
2021/07/11 10:06:36;;;;;;;8.58;6.12;;;;;;;31.91;48.12;100789.67;1729999;81;21419;-62
2021/07/11 10:09:08;;;;;;;9.30;6.70;;;;;;;31.84;48.97;100792.89;1731859;81;21092;-62
2021/07/11 10:11:36;;;;;;;11.57;6.57;;;;;;;31.75;48.13;100789.34;1720201;81;21387;-62
2021/07/11 10:14:03;;;;;;;11.60;6.55;;;;;;;31.68;47.43;100786.47;1735813;81;21046;-62
2021/07/11 10:16:35;;;;;;;8.53;6.22;;;;;;;31.59;45.40;100782.10;1732294;81;20993;-62
2021/07/11 10:19:01;;;;;;;14.18;6.53;;;;;;;31.52;45.57;100786.70;1741414;81;20973;-62
2021/07/11 10:21:34;;;;;;;11.65;7.08;;;;;;;31.44;46.48;100782.95;1732322;81;22217;-61
2021/07/11 10:24:03;;;;;;;11.73;6.78;;;;;;;31.38;47.30;100782.34;1734064;81;21537;-62
2021/07/11 10:26:38;;;;;;;11.78;7.20;;;;;;;31.31;48.24;100774.48;1734428;81;21056;-63
2021/07/11 10:29:12;;;;;;;13.48;7.50;;;;;;;31.27;47.92;100767.58;1731579;81;21117;-62
2021/07/11 10:31:48;;;;;;;10.95;6.67;;;;;;;31.25;47.64;100776.60;1735209;81;21447;-62
2021/07/11 10:34:35;;;;;;;13.50;7.00;;;;;;;31.18;45.42;100774.23;1731302;81;21480;-62
2021/07/11 10:37:12;;;;;;;10.45;7.17;;;;;;;31.10;45.25;100762.21;1739778;80;21521;-62
2021/07/11 10:39:39;;;;;;;10.72;6.90;;;;;;;31.08;44.68;100766.20;1768424;79;21008;-62
2021/07/11 10:42:08;;;;;;;15.32;6.67;;;;;;;31.09;44.25;100756.34;1774294;79;20984;-68
2021/07/11 10:44:37;;;;;;;8.53;6.05;;;;;;;31.10;44.24;100756.67;1752003;79;20866;-67
2021/07/11 10:47:04;;;;;;;11.40;6.70;;;;;;;31.09;43.95;100749.93;1773799;79;21913;-63
2021/07/11 10:49:34;;;;;;;11.28;6.15;;;;;;;31.03;43.88;100744.62;1771701;79;21257;-61
2021/07/11 10:52:04;;;;;;;10.43;6.35;;;;;;;30.98;44.11;100741.56;1772877;79;20944;-67
2021/07/11 10:54:36;;;;;;;8.95;6.22;;;;;;;30.94;43.77;100737.47;1775384;79;21080;-61
2021/07/11 10:57:10;;;;;;;11.17;6.63;;;;;;;30.87;43.88;100734.08;1771973;79;21005;-61
2021/07/11 10:59:40;;;;;;;9.80;6.22;;;;;;;30.83;44.70;100747.08;1771036;79;21479;-68
2021/07/11 11:02:20;;;;;;;10.98;6.47;;;;;;;30.81;44.82;100744.49;1731187;81;21525;-62
2021/07/11 11:04:57;;;;;;;10.00;6.50;;;;;;;30.78;44.94;100734.34;1775246;79;21000;-61
2021/07/11 11:07:24;;;;;;;13.05;6.33;;;;;;;30.74;46.18;100733.84;1747895;79;21124;-61
2021/07/11 11:09:51;;;;;;;12.58;6.90;;;;;;;30.71;47.25;100723.16;1776644;79;21434;-62
2021/07/11 11:12:20;;;;;;;9.10;6.47;;;;;;;30.63;47.50;100727.41;1775720;79;20964;-66
2021/07/11 11:15:00;;;;;;;10.90;6.20;;;;;;;30.55;46.72;100717.23;1768851;79;21376;-68
2021/07/11 11:17:35;;;;;;;12.45;6.00;;;;;;;30.50;44.71;100712.25;1774997;79;21003;-69
2021/07/11 11:20:09;;;;;;;8.35;6.10;;;;;;;30.45;44.47;100711.96;1775499;79;20881;-68
2021/07/11 11:22:35;;;;;;;14.65;5.78;;;;;;;30.47;44.14;100713.14;1730400;81;21108;-67
2021/07/11 11:25:03;;;;;;;10.53;6.10;;;;;;;30.49;43.70;100706.39;1776850;79;21012;-66